createdAt,value
2018-07-08T00:01:13.146Z,16.00
2018-07-08T00:03:41.337Z,18.67
2018-07-08T00:06:09.580Z,15.90
2018-07-08T00:08:37.785Z,16.80
2018-07-08T00:11:06.455Z,16.70
2018-07-08T00:13:34.645Z,17.37
2018-07-08T00:16:02.880Z,19.10
2018-07-08T00:18:31.120Z,16.13
2018-07-08T00:20:59.307Z,17.40
2018-07-08T00:23:27.803Z,16.30
2018-07-08T00:25:56.347Z,18.17
2018-07-08T00:28:24.529Z,14.57
2018-07-08T00:30:53.042Z,17.10
2018-07-08T00:33:21.204Z,17.30
2018-07-08T00:35:49.761Z,16.27
2018-07-08T00:38:18.163Z,17.20
2018-07-08T00:40:46.427Z,14.30
2018-07-08T00:43:14.627Z,14.70
2018-07-08T00:45:42.967Z,17.03
2018-07-08T00:48:11.233Z,15.30
2018-07-08T00:50:39.409Z,16.40
2018-07-08T00:53:07.896Z,16.17
2018-07-08T00:55:36.394Z,16.63
2018-07-08T00:58:04.815Z,15.50
2018-07-08T01:00:34.202Z,17.00
2018-07-08T01:03:03.998Z,15.97
2018-07-08T01:05:32.625Z,16.67
2018-07-08T01:08:01.410Z,17.53
2018-07-08T01:10:29.717Z,18.60
2018-07-08T01:12:58.338Z,18.23
2018-07-08T01:15:26.931Z,18.17
2018-07-08T01:17:55.597Z,17.27
2018-07-08T01:20:24.160Z,17.10
2018-07-08T01:22:52.841Z,18.00
2018-07-08T01:25:26.428Z,17.27
2018-07-08T01:27:54.652Z,17.83
2018-07-08T01:30:22.848Z,18.33
2018-07-08T01:32:51.433Z,18.50
2018-07-08T01:35:19.651Z,17.00
2018-07-08T01:37:47.934Z,18.13
2018-07-08T01:40:16.415Z,16.93
2018-07-08T01:42:44.588Z,19.90
2018-07-08T01:45:13.072Z,17.40
2018-07-08T01:47:41.301Z,16.93
2018-07-08T01:50:09.854Z,17.53
2018-07-08T01:52:38.157Z,15.30
2018-07-08T01:55:06.329Z,17.00
2018-07-08T01:57:34.916Z,16.23
2018-07-08T02:00:03.189Z,17.20
2018-07-08T02:02:31.388Z,17.00
2018-07-08T02:04:59.934Z,15.53
2018-07-08T02:07:28.116Z,17.33
2018-07-08T02:09:56.367Z,18.03
2018-07-08T02:12:24.559Z,17.30
2018-07-08T02:14:53.177Z,17.27
2018-07-08T02:17:21.478Z,15.43
2018-07-08T02:19:49.772Z,15.90
2018-07-08T02:22:18.465Z,14.80
2018-07-08T02:24:46.640Z,15.83
2018-07-08T02:27:14.892Z,15.63
2018-07-08T02:29:43.136Z,17.63
2018-07-08T02:32:11.975Z,15.50
2018-07-08T02:34:40.172Z,15.53
2018-07-08T02:37:08.416Z,17.40
2018-07-08T02:39:36.662Z,17.60
2018-07-08T02:42:04.848Z,17.60
2018-07-08T02:44:33.051Z,14.60
2018-07-08T02:47:01.621Z,17.20
2018-07-08T02:49:30.335Z,16.43
2018-07-08T02:51:58.470Z,15.30
2018-07-08T02:54:26.665Z,14.17
2018-07-08T02:56:54.852Z,14.63
2018-07-08T02:59:23.408Z,13.20
2018-07-08T03:01:51.570Z,14.07
2018-07-08T03:04:20.088Z,13.67
2018-07-08T03:06:48.239Z,14.70
2018-07-08T03:09:16.821Z,15.40
2018-07-08T03:11:44.973Z,15.23
2018-07-08T03:14:13.299Z,15.13
2018-07-08T03:16:41.872Z,16.43
2018-07-08T03:19:10.062Z,14.93
2018-07-08T03:21:38.346Z,16.03
2018-07-08T03:24:06.932Z,15.23
2018-07-08T03:26:35.106Z,17.40
2018-07-08T03:29:03.686Z,14.50
2018-07-08T03:31:31.876Z,14.20
2018-07-08T03:34:00.098Z,13.93
2018-07-08T03:36:28.570Z,13.33
2018-07-08T03:38:56.745Z,13.57
2018-07-08T03:41:24.990Z,13.77
2018-07-08T03:43:53.637Z,13.07
2018-07-08T03:46:21.850Z,14.67
2018-07-08T03:48:50.370Z,13.57
2018-07-08T03:51:18.520Z,14.37
2018-07-08T03:53:47.044Z,16.40
2018-07-08T03:56:15.211Z,16.27
2018-07-08T03:58:43.771Z,15.20
2018-07-08T04:01:11.946Z,15.53
2018-07-08T04:03:40.478Z,15.67
2018-07-08T04:06:08.623Z,15.87
2018-07-08T04:08:37.102Z,17.57
2018-07-08T04:11:05.278Z,15.43
2018-07-08T04:13:33.433Z,15.20
2018-07-08T04:16:01.628Z,17.30
2018-07-08T04:18:30.129Z,17.93
2018-07-08T04:20:58.780Z,18.57
2018-07-08T04:23:27.029Z,16.83
2018-07-08T04:25:55.329Z,16.23
2018-07-08T04:28:23.830Z,17.37
2018-07-08T04:30:52.075Z,14.90
2018-07-08T04:33:20.221Z,15.17
2018-07-08T04:35:49.027Z,16.87
2018-07-08T04:38:17.172Z,16.50
2018-07-08T04:40:45.459Z,17.10
2018-07-08T04:43:14.001Z,16.63
2018-07-08T04:45:42.178Z,18.97
2018-07-08T04:48:10.331Z,16.53
2018-07-08T04:50:38.510Z,15.70
2018-07-08T04:53:06.688Z,17.10
2018-07-08T04:55:35.214Z,16.27
2018-07-08T04:58:03.505Z,16.43
2018-07-08T05:00:32.005Z,17.90
2018-07-08T05:03:00.522Z,17.53
2018-07-08T05:05:28.809Z,17.20
2018-07-08T05:07:57.271Z,15.80
2018-07-08T05:10:25.494Z,16.00
2018-07-08T05:12:53.978Z,17.73
2018-07-08T05:15:22.229Z,18.70
2018-07-08T05:17:50.754Z,17.20
2018-07-08T05:20:18.970Z,20.27
2018-07-08T05:22:47.131Z,19.57
2018-07-08T05:25:15.686Z,20.13
2018-07-08T05:27:44.226Z,17.97
2018-07-08T05:30:12.465Z,18.63
2018-07-08T05:32:40.607Z,16.20
2018-07-08T05:35:08.878Z,17.23
2018-07-08T05:37:37.418Z,18.03
2018-07-08T05:40:05.691Z,15.80
2018-07-08T05:42:33.889Z,16.60
2018-07-08T05:45:02.405Z,16.40
2018-07-08T05:47:30.646Z,15.67
2018-07-08T05:49:59.032Z,15.43
2018-07-08T05:52:27.500Z,17.10
2018-07-08T05:54:55.775Z,16.60
2018-07-08T05:57:25.309Z,15.97
2018-07-08T05:59:53.594Z,16.20
2018-07-08T06:02:22.177Z,15.97
2018-07-08T06:04:50.895Z,17.03
2018-07-08T06:07:19.085Z,15.77
2018-07-08T06:09:47.273Z,14.43
2018-07-08T06:12:15.776Z,14.77
2018-07-08T06:14:44.041Z,13.70
2018-07-08T06:17:12.376Z,14.10
2018-07-08T06:19:40.561Z,12.97
2018-07-08T06:22:09.145Z,11.33
2018-07-08T06:24:37.495Z,11.57
2018-07-08T06:27:05.747Z,11.67
2018-07-08T06:29:33.907Z,10.13
2018-07-08T06:32:02.539Z,11.27
2018-07-08T06:34:30.806Z,10.70
2018-07-08T06:36:59.107Z,9.83
2018-07-08T06:39:27.299Z,7.77
2018-07-08T06:41:55.930Z,7.50
2018-07-08T06:44:24.229Z,6.77
2018-07-08T06:46:52.656Z,6.43
2018-07-08T06:49:20.823Z,6.60
2018-07-08T06:51:48.995Z,5.90
2018-07-08T06:54:17.183Z,5.90
2018-07-08T06:56:45.735Z,6.87
2018-07-08T06:59:13.943Z,7.07
2018-07-08T07:01:42.438Z,5.90
2018-07-08T07:04:10.930Z,6.00
2018-07-08T07:06:39.298Z,6.00
2018-07-08T07:09:08.572Z,6.07
2018-07-08T07:11:37.340Z,5.03
2018-07-08T07:14:05.522Z,5.30
2018-07-08T07:16:34.418Z,4.87
2018-07-08T07:19:02.637Z,5.87
2018-07-08T07:21:30.803Z,5.43
2018-07-08T07:23:58.966Z,5.80
2018-07-08T07:26:27.173Z,5.93
2018-07-08T07:28:55.739Z,4.87
2018-07-08T07:31:23.937Z,5.53
2018-07-08T07:33:52.498Z,5.97
2018-07-08T07:36:21.740Z,5.60
2018-07-08T07:38:50.203Z,5.60
2018-07-08T07:41:18.851Z,5.30
2018-07-08T07:43:47.101Z,4.90
2018-07-08T07:46:15.633Z,5.60
2018-07-08T07:48:44.753Z,5.90
2018-07-08T07:51:13.302Z,5.23
2018-07-08T07:53:41.892Z,4.57
2018-07-08T07:56:10.090Z,5.37
2018-07-08T07:58:38.627Z,5.90
2018-07-08T08:01:07.525Z,5.07
2018-07-08T08:03:35.782Z,5.43
2018-07-08T08:06:03.993Z,4.90
2018-07-08T08:08:32.233Z,5.40
2018-07-08T08:11:00.563Z,5.00
2018-07-08T08:13:28.817Z,6.67
2018-07-08T08:15:56.996Z,6.13
2018-07-08T08:18:25.510Z,4.73
2018-07-08T08:20:55.130Z,5.17
2018-07-08T08:23:23.356Z,5.03
2018-07-08T08:25:51.957Z,4.53
2018-07-08T08:28:20.250Z,4.43
2018-07-08T08:30:48.436Z,5.57
2018-07-08T08:33:17.040Z,3.80
2018-07-08T08:35:45.243Z,4.27
2018-07-08T08:38:13.856Z,3.93
2018-07-08T08:40:42.141Z,4.00
2018-07-08T08:43:11.394Z,3.90
2018-07-08T08:45:40.100Z,4.30
2018-07-08T08:48:08.329Z,4.30
2018-07-08T08:50:36.549Z,3.80
2018-07-08T08:53:05.249Z,3.90
2018-07-08T08:55:33.394Z,3.30
2018-07-08T08:58:01.912Z,3.00
2018-07-08T09:00:30.059Z,3.30
2018-07-08T09:02:58.629Z,3.20
2018-07-08T09:05:26.850Z,3.07
2018-07-08T09:07:55.026Z,3.20
2018-07-08T09:10:23.563Z,3.17
2018-07-08T10:43:51.858Z,3.23
2018-07-08T10:46:20.065Z,2.57
2018-07-08T10:48:48.339Z,3.43
2018-07-08T10:51:16.566Z,2.63
2018-07-08T10:53:45.089Z,3.57
2018-07-08T10:56:13.303Z,3.70
2018-07-08T10:58:41.904Z,3.13
2018-07-08T11:01:10.107Z,3.67
2018-07-08T11:03:38.596Z,3.23
2018-07-08T11:06:06.815Z,4.03
2018-07-08T11:08:35.520Z,4.60
2018-07-08T11:11:03.735Z,5.10
2018-07-08T11:13:31.869Z,4.90
2018-07-08T11:16:01.422Z,3.40
2018-07-08T11:18:30.161Z,3.57
2018-07-08T11:20:58.424Z,3.80
2018-07-08T11:23:26.662Z,3.40
2018-07-08T11:25:54.873Z,4.13
2018-07-08T11:28:23.376Z,3.97
2018-07-08T11:30:51.937Z,3.30
2018-07-08T11:33:20.111Z,3.00
2018-07-08T11:35:48.332Z,3.00
2018-07-08T11:38:17.048Z,2.63
2018-07-08T11:40:45.404Z,2.67
2018-07-08T11:43:13.593Z,2.83
2018-07-08T11:45:41.810Z,2.47
2018-07-08T11:48:10.382Z,2.60
2018-07-08T11:50:38.947Z,2.60
2018-07-08T11:53:07.142Z,3.00
2018-07-08T11:55:35.416Z,2.50
2018-07-08T11:58:03.626Z,3.37
2018-07-08T12:00:32.135Z,2.50
2018-07-08T12:03:00.699Z,2.63
2018-07-08T12:05:28.866Z,3.27
2018-07-08T12:07:57.228Z,2.50
2018-07-08T12:10:25.846Z,2.23
2018-07-08T12:12:54.066Z,2.10
2018-07-08T12:15:22.289Z,2.83
2018-07-08T12:17:50.855Z,4.50
2018-07-08T12:20:19.057Z,2.90
2018-07-08T12:22:47.247Z,2.90
2018-07-08T12:25:15.883Z,2.40
2018-07-08T12:27:44.134Z,2.23
2018-07-08T12:30:12.322Z,3.43
2018-07-08T12:32:40.890Z,3.07
2018-07-08T12:35:09.069Z,2.30
2018-07-08T12:37:37.754Z,2.70
2018-07-08T12:40:06.150Z,2.23
2018-07-08T12:42:34.381Z,2.53
2018-07-08T12:45:02.587Z,2.37
2018-07-08T12:47:30.801Z,2.43
2018-07-08T12:49:58.989Z,2.93
2018-07-08T12:52:27.511Z,2.47
2018-07-08T12:54:55.733Z,3.20
2018-07-08T12:57:24.249Z,2.50
2018-07-08T12:59:52.461Z,2.20
2018-07-08T13:02:21.136Z,2.43
2018-07-08T13:04:49.403Z,2.50
2018-07-08T13:07:48.150Z,2.13
2018-07-08T13:10:16.766Z,2.23
2018-07-08T13:12:44.966Z,2.83
2018-07-08T13:15:13.175Z,2.90
2018-07-08T13:17:41.718Z,2.93
2018-07-08T13:20:09.933Z,2.60
2018-07-08T13:22:38.365Z,2.67
2018-07-08T13:25:06.626Z,2.27
2018-07-08T13:27:34.914Z,2.57
2018-07-08T13:30:03.538Z,2.47
2018-07-08T13:32:31.754Z,2.90
2018-07-08T13:35:00.264Z,2.67
2018-07-08T13:37:28.437Z,2.20
2018-07-08T13:39:56.957Z,2.50
2018-07-08T13:42:25.171Z,2.60
2018-07-08T13:44:53.337Z,2.47
2018-07-08T13:47:21.671Z,2.47
2018-07-08T13:49:50.139Z,2.63
2018-07-08T13:52:18.328Z,2.47
2018-07-08T13:54:46.927Z,2.20
2018-07-08T13:57:15.462Z,2.30
2018-07-08T13:59:43.720Z,2.50
2018-07-08T14:02:12.063Z,3.30
2018-07-08T14:04:40.672Z,2.60
2018-07-08T14:10:52.669Z,2.70
2018-07-08T14:16:08.175Z,2.80
2018-07-08T14:18:37.139Z,2.30
2018-07-08T14:21:05.473Z,1.90
2018-07-08T14:23:33.866Z,2.50
2018-07-08T14:26:02.204Z,1.63
2018-07-08T14:28:33.271Z,1.80
2018-07-08T14:31:01.978Z,2.33
2018-07-08T14:33:30.505Z,2.13
2018-07-08T14:35:59.046Z,2.00
2018-07-08T14:38:31.275Z,2.10
2018-07-08T14:41:00.103Z,2.03
2018-07-08T14:43:28.574Z,2.37
2018-07-08T14:51:46.346Z,2.00
2018-07-08T14:57:14.527Z,2.73
2018-07-08T15:25:22.066Z,2.10
2018-07-08T15:44:20.134Z,2.23
2018-07-08T15:46:48.673Z,2.27
2018-07-08T15:49:17.206Z,2.00
2018-07-08T15:51:45.419Z,2.30
2018-07-08T15:54:14.015Z,2.20
2018-07-08T15:56:42.604Z,2.10
2018-07-08T15:59:11.131Z,2.27
2018-07-08T16:01:39.394Z,2.10
2018-07-08T16:04:07.994Z,2.07
2018-07-08T16:06:36.520Z,1.70
2018-07-08T16:09:05.729Z,1.83
2018-07-08T16:11:35.315Z,2.07
2018-07-08T16:14:02.561Z,2.20
2018-07-08T16:16:31.102Z,2.00
2018-07-08T16:18:59.782Z,1.67
2018-07-08T16:21:28.647Z,2.03
2018-07-08T16:23:56.841Z,1.70
2018-07-08T16:26:25.401Z,1.77
2018-07-08T16:28:53.963Z,2.30
2018-07-08T16:31:22.804Z,2.23
2018-07-08T16:33:51.302Z,2.13
